Hang Gliding World Championship 2015

2015-02-28 to 2015-03-13

Overall T1

2015-03-02 T1

Race to Goal 109.0 km

Official

No Leg Dist. Id Radius Open Close Coordinates Altitude
1 0.0 km D01235 1 m 12:40 14:40 Lat: 19.062000 Lon: -100.090500 m
2 SS 10.1 km A01178 10000 m 14:00 18:00 Lat: 19.042667 Lon: -100.104500 m
3 17.8 km B03246 400 m 14:00 18:00 Lat: 19.128333 Lon: -100.249000 m
4 53.4 km A10261 400 m 14:00 18:00 Lat: 19.153500 Lon: -99.905333 m
5 72.5 km A14283 2000 m 14:00 18:00 Lat: 18.962167 Lon: -99.890500 m
6 105.7 km B11248 2000 m 14:00 18:00 Lat: 19.242500 Lon: -100.071000 m
7 ES 109.0 km A03232 400 m 14:00 18:00 Lat: 19.259333 Lon: -100.024333 m
8 109.0 km A03232 399 m 14:00 18:00 Lat: 19.259333 Lon: -100.024333 m
StartGate(s): 14:00, 14:20

# Id Name Nat Glider Sponsor SS ES Time km/h Distance Dist.
Points
Lead.
Points
Time
Points
Arr.
Pos.
Points
Total
1 141 Christian CIECH M ITA Icaro 2000 Laminar AeCI/Icaro 2000/Woody Valley 14:00:00 16:17:55 02:17:55 43.0 108.97 440.6 87.6 391.6 69.9 990
2 10 Rodolfo GOTÉS M MEX Wills Wing T2C Sensual Tea vuelolibre.mx 14:00:00 16:18:19 02:18:19 42.9 108.97 440.6 97.9 381.1 59.9 980
3 176 Manfred RUHMER M AUT Icaro 2000 Laminar Icaro2000, Woody Valley, Bräuniger 14:00:00 16:18:08 02:18:08 42.9 108.97 440.6 88.1 384.6 63.1 976
3 69 Gerd DÖNHUBER M GER Moyes RX 3.5 Skyline Flightgear 14:00:00 16:18:06 02:18:06 42.9 108.97 440.6 83.8 385.3 66.4 976
5 53 Seppi Salvenmoser M AUT Moyes RX 3.5 RED BULL 14:00:00 16:20:43 02:20:43 42.1 108.97 440.6 79.2 353.1 56.8 930
6 198 Attila BERTOK M HUN Moyes Litespeed RX 3.5 Moyes Delta Gliders 14:00:00 16:21:55 02:21:55 41.8 108.97 440.6 83.6 342.8 53.9 921
7 156 Suan SELENATI M ITA Wills Wing T2C FRIULI VENEZIA GIULIA/WOODY VALLEY/W W 14:00:00 16:23:31 02:23:31 41.3 108.97 440.6 73.8 330.5 51.1 896
8 45 Daniel VELEZ M COL Wills Wing T2C FEDEAEREOS 14:00:00 16:28:10 02:28:10 40.0 108.97 440.6 75.5 300.2 48.5 865
9 47 Pedro L GARCIA M ESP Wills Wing T2C Wills Wing - Juaki Air 14:00:00 16:31:12 02:31:12 39.2 108.97 440.6 76.9 283.0 46.0 847
10 144 Carl WALLBANK M GBR Moyes RX 3.5 Moyes UK 14:00:00 16:34:13 02:34:13 38.5 108.97 440.6 75.7 267.1 43.6 827
11 142 Peter NEUENSCHWANDER M SUI Aeros Combat 13.5 AEROS 14:00:00 16:34:40 02:34:40 38.3 108.97 440.6 73.3 264.8 41.3 820
12 189 Petr BENEŠ M CZE Aeros Combat 09 LAA CR 14:00:00 16:37:58 02:37:58 37.5 108.97 440.6 65.4 248.7 39.2 794
13 174 Steve BLENKINSOP M AUS Moyes Litespeed RX 3.5 Tec Moyes Delta Gliders 14:00:00 16:38:08 02:38:08 37.5 108.97 440.6 66.1 247.9 37.2 792
14 39 Erick SALGADO M MEX Moyes Litespeed S 4.5 CASA MADERO 14:00:00 16:38:16 02:38:16 37.5 108.97 440.6 66.8 247.3 35.2 790
14 106 Jonny DURAND M AUS Moyes RX 3.5 Moyes Red Bull Blu Eye 14:20:00 16:49:09 02:29:09 39.8 108.97 440.6 32.2 294.5 22.6 790
16 114 Glauco PINTO M BRA Icaro 2000 Laminar ABVL/X-WINGS 14:20:00 16:49:34 02:29:34 39.6 108.97 440.6 30.8 292.1 19.9 783
16 101 Robin HAMILTON M USA Moyes RX 3.5 NAA 14:20:00 16:49:42 02:29:42 39.6 108.97 440.6 31.4 291.3 19.2 783
18 167 Boisselier ANTOINE M FRA Icaro 2000 Laminar Icaro Skyline 14:00:00 16:40:38 02:40:38 36.9 108.97 440.6 63.7 236.3 33.4 774
19 159 Christian VOIBLET M SUI Aeros Combat C Flytec 14:00:00 16:43:36 02:43:36 36.2 108.97 440.6 57.7 223.0 31.7 753
20 180 Trent BROWN M AUS Moyes RX 3.5 Moyes Delta Gliders 14:20:00 16:55:43 02:35:43 38.1 108.97 440.6 30.0 259.6 16.4 747
21 122 Roland WOEHRLE M GER Moyes RX 3.5 Sparkasse Haslach/Zell; Skyline 14:00:00 16:45:28 02:45:28 35.8 108.97 440.6 51.0 215.0 28.7 735
22 151 Davide GUIDUCCI M ITA Wills Wing T2C Woody Walley 14:00:00 16:45:31 02:45:31 35.8 108.97 440.6 51.7 214.8 26.0 733
22 182 Jonas LOBITZ M NZL Moyes RS 4 Moyes, Warren Windsports 14:00:00 16:45:26 02:45:26 35.8 108.97 440.6 46.7 215.1 30.2 733
24 113 Max TURIACO M BRA Wills Wing T2C Maxflyrio 14:00:00 16:45:29 02:45:29 35.8 108.97 440.6 46.7 214.9 27.3 730
25 136 Grant CROSSINGHAM M GBR Moyes RX 3.5 Luisa Morales Rueda 14:00:00 16:46:02 02:46:02 35.7 108.97 440.6 47.8 212.6 24.7 726
26 102 Krzysztof GRZYB M USA Moyes RX 3.5 Moyes, QuestLift, CS LLc 14:20:00 17:01:39 02:41:39 36.7 108.97 440.6 28.1 231.7 15.6 716
27 171 Zin PIERO M FRA Icaro 2000 Laminar Z9 14.1 no sponsors 14:00:00 16:49:09 02:49:09 35.1 108.97 440.6 49.7 199.6 22.6 713
27 148 Balazs UJHELYI M HUN Moyes RS 4 no 14:00:00 16:48:48 02:48:48 35.1 108.97 440.6 48.1 201.0 23.6 713
29 121 Gordon RIGG M GBR Moyes RX 3.5 Open to Offers 14:00:00 16:49:12 02:49:12 35.0 108.97 440.6 47.6 199.4 20.7 708
30 139 Tullio GERVASONI M ITA Wills Wing T2C GAP 14:00:00 16:50:01 02:50:01 34.9 108.97 440.6 47.6 196.0 18.5 703
31 134 André DJAMARANI M GER Aeros Combat 13.5 GT DHV, Addidas, Skyline, Bräuniger 14:00:00 16:51:46 02:51:46 34.5 108.97 440.6 45.4 189.0 17.9 693
32 105 Zac MAJORS M USA Wills Wing T2C Wills Wing, Flytec 14:20:00 17:05:52 02:45:52 35.8 108.97 440.6 19.8 213.3 15.3 689
33 107 Alonzi MARIO M FRA Aeros Combat C ARMEE DE L'AIR 14:00:00 16:54:58 02:54:58 33.9 108.97 440.6 47.4 176.4 17.3 682
34 197 Franz HERRMANN M SUI Aeros Combat Aeros 14:00:00 16:55:29 02:55:29 33.8 108.97 440.6 48.8 174.4 16.8 681
35 137 Filippo OPPICI M ITA Wills Wing T2C Wills Wing 14:00:00 16:55:47 02:55:47 33.7 108.97 440.6 49.0 173.3 16.0 679
36 160 Derreck TURNER M USA Moyes RX5 Fl Ridge flight park 14:20:00 17:11:51 02:51:51 34.5 108.97 440.6 23.5 188.7 14.6 667
37 187 Dan VYHNALIK M CZE Aeros Combat 13.5 GT LAA CR 14:00:00 17:06:54 03:06:54 31.7 108.97 440.6 34.0 132.4 15.1 622
38 190 Jesus Maria HERNANDO M ESP Wills Wing T2C NO 14:00:00 17:10:01 03:10:01 31.2 108.97 440.6 25.0 121.5 14.8 602
39 31 David SEGURA M MEX Moyes RX5 no 14:00:00 17:16:20 03:16:20 30.2 108.97 440.6 25.2 100.1 14.5 580
40 127 Corinna SCHWIEGERSHAUSEN F GER Moyes RX3 Red Bull, adidas, Moyes, Icebreaker, Bräuniger, W 14:00:00 17:21:04 03:21:04 29.5 108.97 440.6 25.5 84.6 14.3 565
41 147 Fredy BIRCHER M SUI Moyes RX 3.5 SHV 14:00:00 17:40:24 03:40:24 26.9 108.97 440.6 12.6 24.7 14.2 492
42 119 Steven BLACKLER M GBR Moyes RX 3.5 nil 14:00:00 17:44:57 03:44:57 26.4 108.97 440.6 25.0 11.4 14.1 491
43 183 Glen MCFARLANE M AUS Wills Wing T2C Willswings 13:59:51 17:44:36 03:44:45 26.4 108.97 440.6 16.3 12.0 14.1 480
44 123 Walter MAYER M AUT Moyes RX4 T-WM 14:00:00 106.06 434.7 38.8 474
45 138 Christian PREININGER M AUT Icaro 2000 Laminar Icaro 2000 14:20:00 97.26 412.6 413
46 165 Yon BÁRCENA M Wills Wing T2C _ 14:00:00 67.41 347.8 348
46 164 Nils VESK M AUS Moyes RX 3.5 my savings account 14:00:00 67.35 347.5 348
46 150 Yoshikatsu TONOMURA M JPN Moyes RX3 none 14:00:00 67.53 348.1 348
46 57 Takashi SUNAMA M JPN Aeros Combat GT - 14:00:00 67.52 348.1 348
46 117 Fábio THOMAZ M BRA Moyes RX5 www.rooasadelta.com.br 14:00:00 67.38 347.6 348
51 116 Eduardo OLIVEIRA M BRA Wills Wing T2C Corinthians 14:00:00 67.29 347.3 347
51 108 Aldo ROHLFS M MEX Moyes RS 4 AMEX 14:00:00 67.15 346.5 347
53 71 Achim VOLLMER M GER Aeros Combat 12.7 GT 14:00:00 66.89 344.7 345
54 80 Francois ISOARD M FRA Wills Wing T2C FFVL 14:00:00 66.84 344.4 344
55 140 Bill SODERQUIST M Moyes RS 3.5 Free Flight Parachutes 14:00:00 66.47 341.4 341
56 29 Pedro Alejandro MONTES GENTNER M MEX Aeros Combat GT Colima 14:00:00 66.24 339.5 340
57 193 Günther TSCHURNIG M AUT Icaro 2000 Laminar Z9 Wirth Austria 14:00:00 65.99 337.1 337
58 129 Hiroshi ONUMA M JPN Icaro 2000 Laminar ? 14:00:00 64.07 317.6 318
59 146 Beat Howald M SUI Aeros Combat 12.7 C ROHN Qualität beim Strom 14:00:00 63.97 316.6 317
60 40 John THEORET M CAN Wills Wing T2C none 14:00:00 63.80 314.6 315
61 172 Christian POLLET M FRA Aeros Combat GT No 14:00:00 62.87 303.4 303
62 30 Alexandre MENARD M CAN Wills Wing T2C None 14:00:00 58.56 264.0 264
63 131 Shogo OTA M JPN Aeros Combat GT nissei 14:00:00 58.43 263.4 263
64 86 Jose Maria IRIARTE M ESP Aeros Combat 12.4 GT españa 14:00:00 57.90 260.1 260
64 28 Tormod HELGESEN M NOR Moyes RX4 None 14:00:00 57.85 259.8 260
66 118 Wayne THOMPSON M GBR ? ? Anyone who offers 14:00:00 57.58 257.8 258
67 178 Graham PHIPPS M GBR Wills Wing T2C 144 Cloud 9 Hang Gliding & Paragliding 14:00:00 57.26 255.7 256
67 112 Elmar CHRISTL M LIE Moyes RX4 Christl SpiceTechnologie 14:00:00 57.27 255.7 256
69 110 Rodrigo (noni) ALVA GOMEZ M MEX Wills Wing T2C VUELOLIBRE.MX 14:20:00 57.13 254.8 255
69 92 Antonio José LETÓN M ESP Aeros Combat GT lc arquitectos 14:00:00 57.12 254.8 255
69 152 Elek CZIGLER M HUN Aeros Combat GT ORIAS 14:20:00 57.09 254.5 255
72 192 Manuel RIVERO LASCURAIN M Wills Wing T2C None 14:00:00 57.01 253.8 254
72 68 Joerg BAJEWSKI M GER Wills Wing T2C TIMEZONE, ANSMANN 14:20:00 56.98 253.5 254
74 132 Yuji SUZUKI M JPN Moyes RX 3.5 WINDSPORT 14:00:00 56.81 251.7 252
75 91 Daniel MARTÍN MOTA M ESP Wills Wing T2C - 14:20:00 55.50 237.2 237
75 93 Alvaro IDÍGORAS MOLINA M ESP Wills Wing T2C 144 Juakiair 14:20:00 55.49 237.1 237
77 149 Valentino BAÙ M ITA Icaro 2000 Laminar 14.1 TERMCLIMA DUE CARRERE (PD) 14:00:00 54.93 230.2 230
78 27 Johnny NILSSEN M NOR Airborne Rev 2 None 14:00:00 54.76 228.1 228
79 195 Francoise DIEUZEIDE-BANET F Moyes RX 3.5 no 14:20:00 53.89 216.3 216
80 155 Nobuhiro OKADA M Wills Wing T2 nothing 14:20:00 53.75 214.4 214
81 154 Shigeto ISHIZAKA M Wills Wing T2C None 14:00:00 53.15 205.4 205
82 133 Akira MUTAZONO M JPN Aeros Combat GT noe 14:20:00 52.60 196.9 197
83 135 Reisinger ROBERT M AUT Wills Wing T2C willswing 14:20:00 38.01 127.3 127
84 166 Alain WOEFFRAY M SUI Wills Wing T2C - 14:00:00 35.51 120.6 121
85 9 Gennadiy KHRAMOV M RUS Wills Wing T2C Deus 14:00:00 33.63 114.2 114
86 158 Eduardo PANUCO M Aeros Combat 13.5 GT SMG 14:00:00 33.03 111.8 112
87 109 Matt BARKER M USA Wills Wing T2C Wills Wing 14:00:00 32.68 110.2 110
88 177 Guy HUBBARD M AUS Moyes RS 4 Moyes 14:20:00 32.47 109.1 109
89 191 Vlastimil BARTAS M CZE Aeros Combat GT LAA Czech Republic 14:00:00 31.56 103.6 104
90 70 Bruce BARMAKIAN M USA ? ? NA 14:00:00 30.54 97.4 97
90 168 Joel MIRÓN DE SOTO M Wills Wing T2C Zenith Aventura 14:00:00 30.47 97.0 97
92 169 Dale REGEHR M CAN Moyes RX4 Na 14:20:00 28.63 83.6 84
93 79 Laurent THEVENOT M FRA Wills Wing T2C lamouette aerobags 5.00 17.0 17
93 48 Claudia MEJIA DE LA PAVA F COL Wills Wing T2C FEDEAEREOS 5.00 17.0 17
95 188 Jiri GUT M CZE Wills Wing T2C LAA CR DNF 0.0 0

Penalties

Note: % penalty is used to calc penalty as a % of total score. Both types can be combined. None affect the scoring of other pilots.
Id Name % penalty points penalty Reason
183 Glen MCFARLANE 3 Jumped the gun

Pilots absent from task (ABS)

Id Name

Pilots not yet processed (NYP)

Id Name

Task statistics

param value
ss_distance 98.831
task_distance 108.968
launch_to_ess_distance 108.967
no_of_pilots_present 95
no_of_pilots_flying 94
no_of_pilots_lo 51
no_of_pilots_reaching_nom_dist 45
no_of_pilots_reaching_es 43
no_of_pilots_reaching_goal 43
sum_flown_distance 7459.605
best_dist 108.968
best_time 2.29861111111111
worst_time 3.74916666666667
no_of_pilots_in_competition 95
no_of_pilots_landed_before_stop 0
sum_dist_over_min 6995.352
sum_real_dist_over_min 6995.352
sum_flown_distances 7459.605
best_real_dist 108.968
last_start_time 2015-03-02T14:20:00-06:00
first_start_time 2015-03-02T13:59:51-06:00
first_finish_time 2015-03-02T16:17:55-06:00
max_time_to_get_time_points 3.81472822766613
no_of_pilots_with_time_points 43
goalratio 0.457446808510638
arrival_weight 0.0699226012961964
departure_weight 0
leading_weight 0.097891641814675
time_weight 0.3915665672587
distance_weight 0.440619189630429
smallest_leading_coefficient 2.50651474544241
available_points_distance 440.619189630429
available_points_time 391.5665672587
available_points_departure 0
available_points_leading 97.891641814675
available_points_arrival 69.9226012961964
time_validity 1
launch_validity 1
distance_validity 1
stop_validity 1
day_quality 1
ftv_day_validity 1
time_points_stop_correction 0

Scoring formula settings

param value
id GAP2014
min_dist 5
nom_dist 75
nom_time 2
nom_launch 0.96
nom_goal 0.25
bonus_gr 5
jump_the_gun_factor 3
jump_the_gun_max 900
normalize_1000_before_day_quality 0
time_points_if_not_in_goal 0
use_1000_points_for_max_day_quality 0
use_arrival_position_points 1
use_arrival_time_points 0
use_departure_points 0
use_difficulty_for_distance_points 1
use_distance_points 1
use_distance_squared_for_LC 0
use_leading_points 1
use_semi_circle_control_zone_for_goal_line 0
use_time_points 1
min_time_span_for_valid_task 90
score_back_time 0
use_arrival_altitude_points 0
final_glide_decelerator none
no_final_glide_decelerator_reason NA
Report created: 2015-03-06T10:51:27-06:00